sensor_id;sensor_type;location;lat;lon;timestamp;noise_LAeq;noise_LA_min;noise_LA_max;noise_LA01;noise_LA95
76382;Laerm;65202;52.520;10.528;2023-02-28T00:01:29;35.83;30.94;44.96;;
76382;Laerm;65202;52.520;10.528;2023-02-28T00:03:57;40.79;32.40;49.74;;
76382;Laerm;65202;52.520;10.528;2023-02-28T00:06:24;36.27;31.19;44.20;;
76382;Laerm;65202;52.520;10.528;2023-02-28T00:08:51;37.99;32.07;44.47;;
76382;Laerm;65202;52.520;10.528;2023-02-28T00:11:19;35.47;30.99;57.05;;
76382;Laerm;65202;52.520;10.528;2023-02-28T00:13:47;40.48;33.02;47.93;;
76382;Laerm;65202;52.520;10.528;2023-02-28T00:16:20;38.89;31.85;47.03;;
76382;Laerm;65202;52.520;10.528;2023-02-28T00:18:48;37.20;31.27;45.00;;
76382;Laerm;65202;52.520;10.528;2023-02-28T00:21:17;38.47;32.01;46.01;;
76382;Laerm;65202;52.520;10.528;2023-02-28T00:23:46;35.26;31.27;43.14;;
76382;Laerm;65202;52.520;10.528;2023-02-28T00:26:13;37.59;31.35;45.75;;
76382;Laerm;65202;52.520;10.528;2023-02-28T00:28:40;41.22;32.77;49.72;;
76382;Laerm;65202;52.520;10.528;2023-02-28T00:31:07;37.41;30.98;46.67;;
76382;Laerm;65202;52.520;10.528;2023-02-28T00:33:35;34.78;30.97;43.67;;
76382;Laerm;65202;52.520;10.528;2023-02-28T00:36:08;47.58;31.14;67.95;;
76382;Laerm;65202;52.520;10.528;2023-02-28T00:38:38;39.44;31.72;48.31;;
76382;Laerm;65202;52.520;10.528;2023-02-28T00:41:06;38.99;32.15;45.66;;
76382;Laerm;65202;52.520;10.528;2023-02-28T00:43:37;36.69;31.50;56.97;;
76382;Laerm;65202;52.520;10.528;2023-02-28T00:46:05;35.57;30.83;44.38;;
76382;Laerm;65202;52.520;10.528;2023-02-28T00:48:32;35.08;30.92;45.03;;
76382;Laerm;65202;52.520;10.528;2023-02-28T00:51:00;37.48;31.53;45.58;;
76382;Laerm;65202;52.520;10.528;2023-02-28T00:53:28;39.26;31.84;49.10;;
76382;Laerm;65202;52.520;10.528;2023-02-28T00:55:55;37.66;31.31;45.13;;
76382;Laerm;65202;52.520;10.528;2023-02-28T00:58:22;38.05;31.56;46.74;;
76382;Laerm;65202;52.520;10.528;2023-02-28T01:00:52;35.64;31.46;43.53;;
76382;Laerm;65202;52.520;10.528;2023-02-28T01:03:21;36.72;31.01;50.61;;
76382;Laerm;65202;52.520;10.528;2023-02-28T01:05:49;35.32;30.90;43.85;;
76382;Laerm;65202;52.520;10.528;2023-02-28T01:08:17;35.84;31.18;50.71;;
76382;Laerm;65202;52.520;10.528;2023-02-28T01:10:44;38.23;31.78;47.87;;
76382;Laerm;65202;52.520;10.528;2023-02-28T01:13:12;36.35;31.49;43.98;;
76382;Laerm;65202;52.520;10.528;2023-02-28T01:15:52;35.12;31.14;56.46;;
76382;Laerm;65202;52.520;10.528;2023-02-28T01:18:21;38.50;31.05;44.91;;
76382;Laerm;65202;52.520;10.528;2023-02-28T01:20:49;36.32;32.09;43.52;;
76382;Laerm;65202;52.520;10.528;2023-02-28T01:23:20;35.74;31.73;45.01;;
76382;Laerm;65202;52.520;10.528;2023-02-28T01:25:52;37.31;31.35;45.56;;
76382;Laerm;65202;52.520;10.528;2023-02-28T01:28:19;36.88;32.27;44.36;;
76382;Laerm;65202;52.520;10.528;2023-02-28T01:30:49;37.23;31.45;49.68;;
76382;Laerm;65202;52.520;10.528;2023-02-28T01:33:16;38.47;31.59;47.22;;
76382;Laerm;65202;52.520;10.528;2023-02-28T01:35:44;37.05;32.53;44.67;;
76382;Laerm;65202;52.520;10.528;2023-02-28T01:38:11;37.32;31.94;45.80;;
76382;Laerm;65202;52.520;10.528;2023-02-28T01:40:48;35.77;31.31;61.48;;
76382;Laerm;65202;52.520;10.528;2023-02-28T01:46:12;35.05;30.70;44.89;;
76382;Laerm;65202;52.520;10.528;2023-02-28T01:48:46;35.67;30.78;48.08;;
76382;Laerm;65202;52.520;10.528;2023-02-28T01:51:20;36.83;31.73;43.95;;
76382;Laerm;65202;52.520;10.528;2023-02-28T01:53:53;35.58;31.39;43.97;;
76382;Laerm;65202;52.520;10.528;2023-02-28T01:56:29;35.38;31.15;43.74;;
76382;Laerm;65202;52.520;10.528;2023-02-28T01:58:57;39.00;32.04;47.76;;
76382;Laerm;65202;52.520;10.528;2023-02-28T02:01:27;38.67;31.61;47.29;;
76382;Laerm;65202;52.520;10.528;2023-02-28T02:03:58;39.00;31.61;46.77;;
76382;Laerm;65202;52.520;10.528;2023-02-28T02:06:37;37.77;31.53;46.19;;
76382;Laerm;65202;52.520;10.528;2023-02-28T02:09:05;39.45;32.21;47.94;;
76382;Laerm;65202;52.520;10.528;2023-02-28T02:11:34;38.15;31.44;48.14;;
76382;Laerm;65202;52.520;10.528;2023-02-28T02:14:30;39.66;32.25;47.31;;
76382;Laerm;65202;52.520;10.528;2023-02-28T02:17:25;42.07;33.85;49.00;;
76382;Laerm;65202;52.520;10.528;2023-02-28T02:20:38;39.39;31.70;49.66;;
76382;Laerm;65202;52.520;10.528;2023-02-28T02:23:48;34.98;31.12;43.62;;
76382;Laerm;65202;52.520;10.528;2023-02-28T02:26:46;37.40;31.24;45.13;;
76382;Laerm;65202;52.520;10.528;2023-02-28T02:29:38;34.61;31.14;43.42;;
76382;Laerm;65202;52.520;10.528;2023-02-28T02:35:46;36.36;31.24;46.39;;
76382;Laerm;65202;52.520;10.528;2023-02-28T02:41:28;37.64;31.37;47.04;;
76382;Laerm;65202;52.520;10.528;2023-02-28T02:44:20;36.43;31.63;44.05;;
76382;Laerm;65202;52.520;10.528;2023-02-28T02:47:03;37.05;31.21;50.55;;
76382;Laerm;65202;52.520;10.528;2023-02-28T02:49:36;36.80;31.56;49.34;;
76382;Laerm;65202;52.520;10.528;2023-02-28T02:52:10;36.51;31.52;44.05;;
76382;Laerm;65202;52.520;10.528;2023-02-28T02:54:45;36.85;31.73;44.82;;
76382;Laerm;65202;52.520;10.528;2023-02-28T02:57:22;36.83;31.37;45.82;;
76382;Laerm;65202;52.520;10.528;2023-02-28T02:59:52;35.71;31.48;43.45;;
76382;Laerm;65202;52.520;10.528;2023-02-28T03:02:23;35.14;31.19;43.28;;
76382;Laerm;65202;52.520;10.528;2023-02-28T03:05:00;36.16;31.03;44.14;;
76382;Laerm;65202;52.520;10.528;2023-02-28T03:07:28;37.21;31.38;52.73;;
76382;Laerm;65202;52.520;10.528;2023-02-28T03:09:57;34.79;31.16;42.82;;
76382;Laerm;65202;52.520;10.528;2023-02-28T03:12:41;35.58;31.22;43.62;;
76382;Laerm;65202;52.520;10.528;2023-02-28T03:15:24;35.86;30.98;57.73;;
76382;Laerm;65202;52.520;10.528;2023-02-28T03:18:24;36.30;31.69;56.31;;
76382;Laerm;65202;52.520;10.528;2023-02-28T03:21:40;39.48;32.35;55.76;;
76382;Laerm;65202;52.520;10.528;2023-02-28T03:24:24;38.10;31.73;60.52;;
76382;Laerm;65202;52.520;10.528;2023-02-28T03:27:24;38.17;31.74;54.89;;
76382;Laerm;65202;52.520;10.528;2023-02-28T03:30:24;35.40;31.15;46.17;;
76382;Laerm;65202;52.520;10.528;2023-02-28T03:33:02;36.01;31.43;45.40;;
76382;Laerm;65202;52.520;10.528;2023-02-28T03:35:48;38.21;31.41;45.34;;
76382;Laerm;65202;52.520;10.528;2023-02-28T03:38:26;44.95;31.57;67.98;;
76382;Laerm;65202;52.520;10.528;2023-02-28T03:41:05;46.55;42.17;63.41;;
76382;Laerm;65202;52.520;10.528;2023-02-28T03:43:38;48.43;41.55;65.96;;
76382;Laerm;65202;52.520;10.528;2023-02-28T03:46:13;42.84;33.19;60.91;;
76382;Laerm;65202;52.520;10.528;2023-02-28T03:48:52;39.26;33.59;46.76;;
76382;Laerm;65202;52.520;10.528;2023-02-28T03:51:24;37.21;32.69;45.36;;
76382;Laerm;65202;52.520;10.528;2023-02-28T03:53:58;36.96;31.83;43.83;;
76382;Laerm;65202;52.520;10.528;2023-02-28T03:56:48;40.76;32.45;65.55;;
76382;Laerm;65202;52.520;10.528;2023-02-28T03:59:37;42.60;32.76;63.63;;
76382;Laerm;65202;52.520;10.528;2023-02-28T04:02:07;36.83;32.41;44.18;;
76382;Laerm;65202;52.520;10.528;2023-02-28T04:04:35;36.99;32.73;52.78;;
76382;Laerm;65202;52.520;10.528;2023-02-28T04:07:07;37.62;32.75;44.68;;
76382;Laerm;65202;52.520;10.528;2023-02-28T04:09:34;39.06;34.02;45.24;;
76382;Laerm;65202;52.520;10.528;2023-02-28T04:12:02;38.67;33.85;47.89;;
76382;Laerm;65202;52.520;10.528;2023-02-28T04:14:29;37.82;32.93;44.55;;
76382;Laerm;65202;52.520;10.528;2023-02-28T04:16:56;39.15;34.87;43.75;;
76382;Laerm;65202;52.520;10.528;2023-02-28T04:19:24;46.15;34.85;63.38;;
76382;Laerm;65202;52.520;10.528;2023-02-28T04:21:53;37.28;32.97;45.04;;
76382;Laerm;65202;52.520;10.528;2023-02-28T04:24:24;38.04;34.46;43.72;;
76382;Laerm;65202;52.520;10.528;2023-02-28T04:26:55;37.21;33.66;44.77;;
76382;Laerm;65202;52.520;10.528;2023-02-28T04:29:27;37.46;33.78;43.37;;
76382;Laerm;65202;52.520;10.528;2023-02-28T04:31:56;37.85;34.57;44.12;;
76382;Laerm;65202;52.520;10.528;2023-02-28T04:34:29;42.33;36.14;52.20;;
76382;Laerm;65202;52.520;10.528;2023-02-28T04:36:57;38.85;34.17;46.04;;
76382;Laerm;65202;52.520;10.528;2023-02-28T04:39:40;37.68;33.84;44.07;;
76382;Laerm;65202;52.520;10.528;2023-02-28T04:42:08;38.03;34.17;45.04;;
76382;Laerm;65202;52.520;10.528;2023-02-28T04:44:36;38.00;34.27;44.63;;
76382;Laerm;65202;52.520;10.528;2023-02-28T04:47:03;39.42;34.42;52.78;;
76382;Laerm;65202;52.520;10.528;2023-02-28T04:49:31;39.17;34.06;57.19;;
76382;Laerm;65202;52.520;10.528;2023-02-28T04:51:59;37.05;33.76;44.64;;
76382;Laerm;65202;52.520;10.528;2023-02-28T04:54:26;36.89;33.23;51.63;;
76382;Laerm;65202;52.520;10.528;2023-02-28T04:56:53;37.30;33.46;45.37;;
76382;Laerm;65202;52.520;10.528;2023-02-28T04:59:21;46.26;34.68;63.58;;
76382;Laerm;65202;52.520;10.528;2023-02-28T05:01:49;39.09;33.06;47.13;;
76382;Laerm;65202;52.520;10.528;2023-02-28T05:04:16;38.75;34.50;45.75;;
76382;Laerm;65202;52.520;10.528;2023-02-28T05:06:44;46.19;33.95;63.76;;
76382;Laerm;65202;52.520;10.528;2023-02-28T05:09:12;37.85;34.33;45.81;;
76382;Laerm;65202;52.520;10.528;2023-02-28T05:11:41;38.60;33.99;48.70;;
76382;Laerm;65202;52.520;10.528;2023-02-28T05:14:13;47.95;33.95;67.00;;
76382;Laerm;65202;52.520;10.528;2023-02-28T05:16:42;38.42;34.38;49.76;;
76382;Laerm;65202;52.520;10.528;2023-02-28T05:19:10;38.70;35.31;45.41;;
76382;Laerm;65202;52.520;10.528;2023-02-28T05:21:55;40.57;35.86;61.40;;
76382;Laerm;65202;52.520;10.528;2023-02-28T05:24:22;40.28;35.39;52.07;;
76382;Laerm;65202;52.520;10.528;2023-02-28T05:26:53;39.54;34.39;52.17;;
76382;Laerm;65202;52.520;10.528;2023-02-28T05:29:22;40.57;34.51;68.04;;
76382;Laerm;65202;52.520;10.528;2023-02-28T05:31:49;50.11;35.03;67.88;;
76382;Laerm;65202;52.520;10.528;2023-02-28T05:34:17;44.75;37.71;62.94;;
76382;Laerm;65202;52.520;10.528;2023-02-28T05:36:44;40.53;36.15;53.32;;
76382;Laerm;65202;52.520;10.528;2023-02-28T05:39:11;40.79;36.84;62.68;;
76382;Laerm;65202;52.520;10.528;2023-02-28T05:41:43;43.39;38.11;61.07;;
76382;Laerm;65202;52.520;10.528;2023-02-28T05:44:11;44.59;37.74;60.94;;
76382;Laerm;65202;52.520;10.528;2023-02-28T05:46:39;44.66;37.63;60.15;;
76382;Laerm;65202;52.520;10.528;2023-02-28T05:49:06;45.08;37.63;60.29;;
76382;Laerm;65202;52.520;10.528;2023-02-28T05:51:33;43.07;38.29;53.14;;
76382;Laerm;65202;52.520;10.528;2023-02-28T05:54:06;46.42;37.76;58.06;;
76382;Laerm;65202;52.520;10.528;2023-02-28T05:56:33;49.06;37.77;62.42;;
76382;Laerm;65202;52.520;10.528;2023-02-28T05:59:06;48.80;37.23;65.44;;
76382;Laerm;65202;52.520;10.528;2023-02-28T06:01:38;45.60;37.34;58.70;;
76382;Laerm;65202;52.520;10.528;2023-02-28T06:04:09;46.85;36.98;60.39;;
76382;Laerm;65202;52.520;10.528;2023-02-28T06:06:51;44.56;37.92;58.89;;
76382;Laerm;65202;52.520;10.528;2023-02-28T06:09:19;45.53;37.64;60.32;;
76382;Laerm;65202;52.520;10.528;2023-02-28T06:11:47;49.53;37.73;62.25;;
76382;Laerm;65202;52.520;10.528;2023-02-28T06:14:17;49.38;37.75;61.03;;
76382;Laerm;65202;52.520;10.528;2023-02-28T06:16:46;49.28;38.19;64.72;;
76382;Laerm;65202;52.520;10.528;2023-02-28T06:19:13;48.08;39.72;61.25;;
76382;Laerm;65202;52.520;10.528;2023-02-28T06:21:42;46.65;38.10;72.57;;
76382;Laerm;65202;52.520;10.528;2023-02-28T06:24:10;49.99;39.41;68.71;;
76382;Laerm;65202;52.520;10.528;2023-02-28T06:26:37;48.58;38.09;67.17;;
76382;Laerm;65202;52.520;10.528;2023-02-28T06:29:04;48.22;39.81;65.98;;
76382;Laerm;65202;52.520;10.528;2023-02-28T06:31:32;44.70;39.55;54.45;;
76382;Laerm;65202;52.520;10.528;2023-02-28T06:34:00;48.91;38.53;65.34;;
76382;Laerm;65202;52.520;10.528;2023-02-28T06:36:27;48.32;39.71;63.94;;
76382;Laerm;65202;52.520;10.528;2023-02-28T06:38:54;46.94;38.98;63.75;;
76382;Laerm;65202;52.520;10.528;2023-02-28T06:41:26;45.53;39.79;55.48;;
76382;Laerm;65202;52.520;10.528;2023-02-28T06:43:55;49.32;39.95;65.44;;
76382;Laerm;65202;52.520;10.528;2023-02-28T06:46:23;47.67;38.66;63.95;;
76382;Laerm;65202;52.520;10.528;2023-02-28T06:48:50;49.42;39.16;68.91;;
76382;Laerm;65202;52.520;10.528;2023-02-28T06:51:20;48.42;41.77;62.50;;
76382;Laerm;65202;52.520;10.528;2023-02-28T06:53:49;53.76;45.63;71.64;;
76382;Laerm;65202;52.520;10.528;2023-02-28T06:56:17;51.33;43.68;68.05;;
76382;Laerm;65202;52.520;10.528;2023-02-28T06:58:49;48.51;41.04;61.60;;
76382;Laerm;65202;52.520;10.528;2023-02-28T07:01:18;47.87;40.32;59.53;;
76382;Laerm;65202;52.520;10.528;2023-02-28T07:03:46;51.31;39.47;67.21;;
76382;Laerm;65202;52.520;10.528;2023-02-28T07:06:13;47.05;38.02;67.94;;
76382;Laerm;65202;52.520;10.528;2023-02-28T07:08:40;51.22;39.68;72.08;;
76382;Laerm;65202;52.520;10.528;2023-02-28T07:11:08;51.14;40.01;64.04;;
76382;Laerm;65202;52.520;10.528;2023-02-28T07:13:36;51.48;39.84;69.51;;
76382;Laerm;65202;52.520;10.528;2023-02-28T07:16:06;49.67;37.44;66.95;;
76382;Laerm;65202;52.520;10.528;2023-02-28T07:18:35;47.17;37.76;64.14;;
76382;Laerm;65202;52.520;10.528;2023-02-28T07:21:07;50.04;37.66;63.78;;
76382;Laerm;65202;52.520;10.528;2023-02-28T07:23:35;46.84;38.19;59.69;;
76382;Laerm;65202;52.520;10.528;2023-02-28T07:26:06;47.65;39.29;59.47;;
76382;Laerm;65202;52.520;10.528;2023-02-28T07:28:33;49.50;39.95;68.07;;
76382;Laerm;65202;52.520;10.528;2023-02-28T07:31:05;46.17;39.96;60.78;;
76382;Laerm;65202;52.520;10.528;2023-02-28T07:33:33;46.15;40.27;58.33;;
76382;Laerm;65202;52.520;10.528;2023-02-28T07:36:16;45.87;38.82;57.74;;
76382;Laerm;65202;52.520;10.528;2023-02-28T07:38:47;45.15;37.89;60.28;;
76382;Laerm;65202;52.520;10.528;2023-02-28T07:41:20;49.29;38.98;66.20;;
76382;Laerm;65202;52.520;10.528;2023-02-28T07:43:48;45.16;37.46;58.82;;
76382;Laerm;65202;52.520;10.528;2023-02-28T07:46:17;45.27;37.47;63.09;;
76382;Laerm;65202;52.520;10.528;2023-02-28T07:48:44;44.52;38.73;53.90;;
76382;Laerm;65202;52.520;10.528;2023-02-28T07:51:12;48.85;38.80;65.11;;
76382;Laerm;65202;52.520;10.528;2023-02-28T07:53:39;47.15;37.61;61.39;;
76382;Laerm;65202;52.520;10.528;2023-02-28T07:56:07;48.66;38.36;63.31;;
76382;Laerm;65202;52.520;10.528;2023-02-28T07:58:34;45.33;36.81;57.15;;
76382;Laerm;65202;52.520;10.528;2023-02-28T08:01:06;48.91;38.25;63.97;;
76382;Laerm;65202;52.520;10.528;2023-02-28T08:03:34;51.69;37.70;69.18;;
76382;Laerm;65202;52.520;10.528;2023-02-28T08:06:06;45.98;36.57;58.62;;
76382;Laerm;65202;52.520;10.528;2023-02-28T08:08:34;49.97;37.19;66.46;;
76382;Laerm;65202;52.520;10.528;2023-02-28T08:11:03;46.75;36.63;68.77;;
76382;Laerm;65202;52.520;10.528;2023-02-28T08:13:30;47.06;36.47;61.04;;
76382;Laerm;65202;52.520;10.528;2023-02-28T08:15:57;48.58;36.24;60.88;;
76382;Laerm;65202;52.520;10.528;2023-02-28T08:18:25;52.25;37.06;71.71;;
76382;Laerm;65202;52.520;10.528;2023-02-28T08:20:52;48.63;36.60;62.85;;
76382;Laerm;65202;52.520;10.528;2023-02-28T08:23:19;48.46;36.46;64.24;;
76382;Laerm;65202;52.520;10.528;2023-02-28T08:25:53;44.29;36.30;58.63;;
76382;Laerm;65202;52.520;10.528;2023-02-28T08:28:22;45.15;36.45;56.75;;
76382;Laerm;65202;52.520;10.528;2023-02-28T08:30:53;47.80;35.73;65.65;;
76382;Laerm;65202;52.520;10.528;2023-02-28T08:33:22;45.52;35.47;69.90;;
76382;Laerm;65202;52.520;10.528;2023-02-28T08:35:53;48.01;36.26;66.68;;
76382;Laerm;65202;52.520;10.528;2023-02-28T08:38:22;48.22;36.23;61.51;;
76382;Laerm;65202;52.520;10.528;2023-02-28T08:41:00;49.66;36.61;66.38;;
76382;Laerm;65202;52.520;10.528;2023-02-28T08:43:28;47.11;36.39;70.85;;
76382;Laerm;65202;52.520;10.528;2023-02-28T08:45:56;43.86;35.39;61.61;;
76382;Laerm;65202;52.520;10.528;2023-02-28T08:48:28;46.54;35.53;61.41;;
76382;Laerm;65202;52.520;10.528;2023-02-28T08:50:59;44.93;36.73;58.21;;
76382;Laerm;65202;52.520;10.528;2023-02-28T08:53:35;43.99;35.46;56.58;;
76382;Laerm;65202;52.520;10.528;2023-02-28T08:56:07;44.19;35.43;56.11;;
76382;Laerm;65202;52.520;10.528;2023-02-28T08:58:35;47.73;34.74;61.67;;
76382;Laerm;65202;52.520;10.528;2023-02-28T09:01:16;43.78;35.81;56.52;;
76382;Laerm;65202;52.520;10.528;2023-02-28T09:03:44;43.64;35.33;56.19;;
76382;Laerm;65202;52.520;10.528;2023-02-28T09:06:15;44.18;34.12;68.74;;
76382;Laerm;65202;52.520;10.528;2023-02-28T09:08:43;47.20;34.78;66.43;;
76382;Laerm;65202;52.520;10.528;2023-02-28T09:11:11;47.39;34.94;62.84;;
76382;Laerm;65202;52.520;10.528;2023-02-28T09:13:39;48.07;34.70;62.43;;
76382;Laerm;65202;52.520;10.528;2023-02-28T09:16:11;44.01;34.56;60.02;;
76382;Laerm;65202;52.520;10.528;2023-02-28T09:18:39;48.13;35.41;66.41;;
76382;Laerm;65202;52.520;10.528;2023-02-28T09:21:11;48.83;33.98;63.95;;
76382;Laerm;65202;52.520;10.528;2023-02-28T09:23:42;47.76;34.49;65.24;;
76382;Laerm;65202;52.520;10.528;2023-02-28T09:26:27;50.06;34.93;69.07;;
76382;Laerm;65202;52.520;10.528;2023-02-28T09:29:09;44.12;34.67;56.36;;
76382;Laerm;65202;52.520;10.528;2023-02-28T09:31:36;47.98;35.79;63.64;;
76382;Laerm;65202;52.520;10.528;2023-02-28T09:34:04;46.50;35.61;60.96;;
76382;Laerm;65202;52.520;10.528;2023-02-28T09:36:31;49.42;34.83;66.62;;
76382;Laerm;65202;52.520;10.528;2023-02-28T09:39:11;47.44;33.72;62.19;;
76382;Laerm;65202;52.520;10.528;2023-02-28T09:41:44;46.69;33.79;71.03;;
76382;Laerm;65202;52.520;10.528;2023-02-28T09:44:44;51.44;34.22;69.25;;
76382;Laerm;65202;52.520;10.528;2023-02-28T09:47:29;44.39;32.76;55.46;;
76382;Laerm;65202;52.520;10.528;2023-02-28T09:50:29;43.62;33.44;55.11;;
76382;Laerm;65202;52.520;10.528;2023-02-28T09:52:56;43.99;34.63;63.34;;
76382;Laerm;65202;52.520;10.528;2023-02-28T09:56:07;44.15;33.96;60.38;;
76382;Laerm;65202;52.520;10.528;2023-02-28T09:58:46;45.13;35.26;59.08;;
76382;Laerm;65202;52.520;10.528;2023-02-28T10:01:33;52.26;35.18;65.19;;
76382;Laerm;65202;52.520;10.528;2023-02-28T10:06:50;42.95;34.81;54.37;;
76382;Laerm;65202;52.520;10.528;2023-02-28T10:09:24;49.88;35.86;68.37;;
76382;Laerm;65202;52.520;10.528;2023-02-28T10:11:56;45.17;34.12;61.71;;
76382;Laerm;65202;52.520;10.528;2023-02-28T10:14:30;48.66;34.53;65.06;;
76382;Laerm;65202;52.520;10.528;2023-02-28T10:17:14;47.00;34.30;59.96;;
76382;Laerm;65202;52.520;10.528;2023-02-28T10:19:58;49.87;34.71;70.11;;
76382;Laerm;65202;52.520;10.528;2023-02-28T10:22:42;48.52;34.48;64.67;;
76382;Laerm;65202;52.520;10.528;2023-02-28T10:25:24;43.67;34.03;56.90;;
76382;Laerm;65202;52.520;10.528;2023-02-28T10:28:11;43.34;34.04;56.68;;
76382;Laerm;65202;52.520;10.528;2023-02-28T10:30:49;45.57;35.08;59.43;;
76382;Laerm;65202;52.520;10.528;2023-02-28T10:33:43;49.66;35.06;67.80;;
76382;Laerm;65202;52.520;10.528;2023-02-28T10:36:18;47.31;35.69;66.72;;
76382;Laerm;65202;52.520;10.528;2023-02-28T10:38:47;45.50;35.02;58.14;;
76382;Laerm;65202;52.520;10.528;2023-02-28T10:41:32;46.75;34.16;65.96;;
76382;Laerm;65202;52.520;10.528;2023-02-28T10:44:23;43.70;34.39;63.87;;
76382;Laerm;65202;52.520;10.528;2023-02-28T10:46:50;44.62;34.74;60.69;;
76382;Laerm;65202;52.520;10.528;2023-02-28T10:49:26;50.69;34.85;68.32;;
76382;Laerm;65202;52.520;10.528;2023-02-28T10:51:59;46.62;35.30;64.40;;
76382;Laerm;65202;52.520;10.528;2023-02-28T10:54:33;43.25;34.13;59.93;;
76382;Laerm;65202;52.520;10.528;2023-02-28T10:57:20;44.12;33.64;60.85;;
76382;Laerm;65202;52.520;10.528;2023-02-28T11:00:08;43.61;33.73;61.82;;
76382;Laerm;65202;52.520;10.528;2023-02-28T11:02:40;45.69;34.44;56.49;;
76382;Laerm;65202;52.520;10.528;2023-02-28T11:05:42;48.05;33.57;64.08;;
76382;Laerm;65202;52.520;10.528;2023-02-28T11:08:16;45.42;34.11;57.87;;
76382;Laerm;65202;52.520;10.528;2023-02-28T11:10:56;46.79;34.76;61.31;;
76382;Laerm;65202;52.520;10.528;2023-02-28T11:13:32;45.63;34.16;65.41;;
76382;Laerm;65202;52.520;10.528;2023-02-28T11:16:05;49.88;34.25;63.96;;
76382;Laerm;65202;52.520;10.528;2023-02-28T11:18:54;43.57;37.36;55.76;;
76382;Laerm;65202;52.520;10.528;2023-02-28T11:21:27;48.90;36.03;63.78;;
76382;Laerm;65202;52.520;10.528;2023-02-28T11:26:51;50.93;34.61;66.06;;
76382;Laerm;65202;52.520;10.528;2023-02-28T11:29:31;42.83;33.61;53.70;;
76382;Laerm;65202;52.520;10.528;2023-02-28T11:34:38;45.92;34.46;58.30;;
76382;Laerm;65202;52.520;10.528;2023-02-28T11:37:16;50.72;35.64;67.57;;
76382;Laerm;65202;52.520;10.528;2023-02-28T11:39:45;48.06;34.84;60.05;;
76382;Laerm;65202;52.520;10.528;2023-02-28T11:45:58;48.45;33.38;67.07;;
76382;Laerm;65202;52.520;10.528;2023-02-28T11:49:05;42.98;32.85;61.80;;
76382;Laerm;65202;52.520;10.528;2023-02-28T11:51:56;55.30;33.40;78.19;;
76382;Laerm;65202;52.520;10.528;2023-02-28T12:01:16;43.71;33.26;57.90;;
76382;Laerm;65202;52.520;10.528;2023-02-28T12:07:01;44.45;34.50;62.59;;
76382;Laerm;65202;52.520;10.528;2023-02-28T12:09:53;41.27;33.53;60.13;;
76382;Laerm;65202;52.520;10.528;2023-02-28T12:12:40;44.40;33.70;61.48;;
76382;Laerm;65202;52.520;10.528;2023-02-28T12:15:40;42.24;33.77;58.69;;
76382;Laerm;65202;52.520;10.528;2023-02-28T12:18:40;41.31;33.10;54.77;;
76382;Laerm;65202;52.520;10.528;2023-02-28T12:21:25;50.23;33.67;70.22;;
76382;Laerm;65202;52.520;10.528;2023-02-28T12:24:31;48.52;33.72;64.58;;
76382;Laerm;65202;52.520;10.528;2023-02-28T12:27:11;51.02;33.58;70.48;;
76382;Laerm;65202;52.520;10.528;2023-02-28T12:30:04;50.71;34.44;68.45;;
76382;Laerm;65202;52.520;10.528;2023-02-28T12:32:42;45.82;34.58;62.17;;
76382;Laerm;65202;52.520;10.528;2023-02-28T12:35:17;50.04;36.05;65.83;;
76382;Laerm;65202;52.520;10.528;2023-02-28T12:37:56;52.91;34.47;72.11;;
76382;Laerm;65202;52.520;10.528;2023-02-28T12:43:16;46.32;36.18;57.54;;
76382;Laerm;65202;52.520;10.528;2023-02-28T12:45:51;46.12;34.13;60.46;;
76382;Laerm;65202;52.520;10.528;2023-02-28T12:48:39;56.14;33.78;79.91;;
76382;Laerm;65202;52.520;10.528;2023-02-28T12:51:09;45.95;33.37;59.77;;
76382;Laerm;65202;52.520;10.528;2023-02-28T12:54:02;46.90;33.46;69.36;;
76382;Laerm;65202;52.520;10.528;2023-02-28T12:56:53;48.69;34.50;66.20;;
76382;Laerm;65202;52.520;10.528;2023-02-28T12:59:48;43.12;32.62;56.18;;
76382;Laerm;65202;52.520;10.528;2023-02-28T13:03:00;55.48;32.40;80.74;;
76382;Laerm;65202;52.520;10.528;2023-02-28T13:05:56;48.65;32.92;64.71;;
76382;Laerm;65202;52.520;10.528;2023-02-28T13:09:12;46.24;33.52;63.33;;
76382;Laerm;65202;52.520;10.528;2023-02-28T13:11:47;46.19;33.21;62.38;;
76382;Laerm;65202;52.520;10.528;2023-02-28T13:15:00;51.16;32.96;67.00;;
76382;Laerm;65202;52.520;10.528;2023-02-28T13:17:23;43.03;32.74;56.66;;
76382;Laerm;65202;52.520;10.528;2023-02-28T13:22:45;44.54;33.84;56.17;;
76382;Laerm;65202;52.520;10.528;2023-02-28T13:27:53;48.43;32.94;67.16;;
76382;Laerm;65202;52.520;10.528;2023-02-28T13:35:46;45.98;32.43;59.23;;
76382;Laerm;65202;52.520;10.528;2023-02-28T13:38:34;44.25;33.21;60.81;;
76382;Laerm;65202;52.520;10.528;2023-02-28T13:44:23;45.02;33.48;69.13;;
76382;Laerm;65202;52.520;10.528;2023-02-28T13:52:16;45.73;33.44;66.64;;
76382;Laerm;65202;52.520;10.528;2023-02-28T14:04:02;47.49;33.32;64.04;;
76382;Laerm;65202;52.520;10.528;2023-02-28T14:06:36;49.88;34.69;70.51;;
76382;Laerm;65202;52.520;10.528;2023-02-28T14:11:38;42.98;32.61;55.94;;
76382;Laerm;65202;52.520;10.528;2023-02-28T14:14:09;46.92;32.97;64.03;;
76382;Laerm;65202;52.520;10.528;2023-02-28T14:16:57;41.96;33.01;56.53;;
76382;Laerm;65202;52.520;10.528;2023-02-28T14:19:29;47.75;34.06;65.79;;
76382;Laerm;65202;52.520;10.528;2023-02-28T14:25:16;46.25;33.38;60.19;;
76382;Laerm;65202;52.520;10.528;2023-02-28T14:28:21;43.65;33.61;57.80;;
76382;Laerm;65202;52.520;10.528;2023-02-28T14:31:09;49.59;33.93;73.87;;
76382;Laerm;65202;52.520;10.528;2023-02-28T14:34:05;46.44;33.78;62.56;;
76382;Laerm;65202;52.520;10.528;2023-02-28T14:36:41;47.38;33.55;65.10;;
76382;Laerm;65202;52.520;10.528;2023-02-28T14:39:18;45.84;34.04;61.37;;
76382;Laerm;65202;52.520;10.528;2023-02-28T14:41:47;52.75;35.28;69.58;;
76382;Laerm;65202;52.520;10.528;2023-02-28T14:44:27;49.58;34.13;69.57;;
76382;Laerm;65202;52.520;10.528;2023-02-28T14:47:02;43.35;33.43;58.38;;
76382;Laerm;65202;52.520;10.528;2023-02-28T14:49:41;49.42;34.05;64.65;;
76382;Laerm;65202;52.520;10.528;2023-02-28T14:52:26;45.72;33.57;68.21;;
76382;Laerm;65202;52.520;10.528;2023-02-28T14:54:59;44.54;33.68;66.93;;
76382;Laerm;65202;52.520;10.528;2023-02-28T14:57:39;46.36;34.04;61.50;;
76382;Laerm;65202;52.520;10.528;2023-02-28T15:02:42;47.23;36.30;70.00;;
76382;Laerm;65202;52.520;10.528;2023-02-28T15:05:23;40.75;34.48;52.90;;
76382;Laerm;65202;52.520;10.528;2023-02-28T15:08:12;46.51;34.03;66.27;;
76382;Laerm;65202;52.520;10.528;2023-02-28T15:10:44;51.59;36.01;67.88;;
76382;Laerm;65202;52.520;10.528;2023-02-28T15:13:14;51.86;34.54;67.03;;
76382;Laerm;65202;52.520;10.528;2023-02-28T15:18:58;45.62;33.85;62.19;;
76382;Laerm;65202;52.520;10.528;2023-02-28T15:21:31;45.52;33.99;63.35;;
76382;Laerm;65202;52.520;10.528;2023-02-28T15:24:04;49.73;35.00;69.19;;
76382;Laerm;65202;52.520;10.528;2023-02-28T15:26:38;47.59;34.00;66.07;;
76382;Laerm;65202;52.520;10.528;2023-02-28T15:29:17;44.16;33.37;57.93;;